createdAt,value
2018-07-27T00:00:29.058Z,25.0
2018-07-27T00:01:30.695Z,21.7
2018-07-27T00:02:32.336Z,22.9
2018-07-27T00:03:33.987Z,21.5
2018-07-27T00:04:35.644Z,24.8
2018-07-27T00:05:37.277Z,24.1
2018-07-27T00:06:38.914Z,22.5
2018-07-27T00:07:40.556Z,21.6
2018-07-27T00:08:42.204Z,21.6
2018-07-27T00:09:43.837Z,19.2
2018-07-27T00:10:45.477Z,17.8
2018-07-27T00:11:47.121Z,17.5
2018-07-27T00:12:48.765Z,17.5
2018-07-27T00:13:50.414Z,16.1
2018-07-27T00:14:52.058Z,16.3
2018-07-27T00:15:53.699Z,15.3
2018-07-27T00:16:55.335Z,16.9
2018-07-27T00:17:56.976Z,17.0
2018-07-27T00:18:58.618Z,16.1
2018-07-27T00:20:00.259Z,16.6
2018-07-27T00:21:01.904Z,16.5
2018-07-27T00:22:03.538Z,15.0
2018-07-27T00:23:05.178Z,12.5
2018-07-27T00:24:06.819Z,12.3
2018-07-27T00:25:08.464Z,11.9
2018-07-27T00:26:10.103Z,11.4
2018-07-27T00:27:11.746Z,10.5
2018-07-27T00:28:13.393Z,9.4
2018-07-27T00:29:15.025Z,10.2
2018-07-27T00:30:16.674Z,11.0
2018-07-27T00:31:18.315Z,11.0
2018-07-27T00:32:19.957Z,10.9
2018-07-27T00:33:21.592Z,11.9
2018-07-27T00:34:23.244Z,12.3
2018-07-27T00:35:24.889Z,12.9
2018-07-27T00:36:26.534Z,13.3
2018-07-27T00:37:28.166Z,10.4
2018-07-27T00:38:29.799Z,10.7
2018-07-27T00:39:31.446Z,9.1
2018-07-27T00:40:33.089Z,9.1
2018-07-27T00:41:34.730Z,11.2
2018-07-27T00:42:36.376Z,10.4
2018-07-27T00:43:38.025Z,11.1
2018-07-27T00:44:39.671Z,11.8
2018-07-27T00:45:41.304Z,12.5
2018-07-27T00:46:42.941Z,12.9
2018-07-27T00:47:44.589Z,11.5
2018-07-27T00:48:46.236Z,10.8
2018-07-27T00:49:47.877Z,12.3
2018-07-27T00:50:49.525Z,9.3
2018-07-27T00:51:51.166Z,9.5
2018-07-27T00:52:52.805Z,9.7
2018-07-27T00:53:54.447Z,8.6
2018-07-27T00:54:56.082Z,8.7
2018-07-27T00:55:57.721Z,7.7
2018-07-27T00:56:59.366Z,5.6
2018-07-27T00:58:01.005Z,4.0
2018-07-27T00:59:02.643Z,6.2
2018-07-27T01:00:04.282Z,6.0
2018-07-27T01:01:05.925Z,8.7
2018-07-27T01:02:07.562Z,7.3
2018-07-27T01:03:09.206Z,7.3
2018-07-27T01:04:10.837Z,6.2
2018-07-27T01:05:12.481Z,4.9
2018-07-27T01:06:14.118Z,3.7
2018-07-27T01:07:15.761Z,1.5
2018-07-27T01:08:17.406Z,1.3
2018-07-27T01:09:19.044Z,0.9
2018-07-27T01:10:20.687Z,0.0
2018-07-27T01:11:22.325Z,0.2
2018-07-27T01:12:23.967Z,0.4
2018-07-27T01:13:25.604Z,0.0
2018-07-27T01:14:27.259Z,0.0
2018-07-27T01:15:28.897Z,0.0
2018-07-27T01:16:30.540Z,1.0
2018-07-27T01:17:32.173Z,3.2
2018-07-27T01:18:33.816Z,3.0
2018-07-27T01:19:35.456Z,0.7
2018-07-27T01:20:37.094Z,2.7
2018-07-27T01:21:38.749Z,1.7
2018-07-27T01:22:40.371Z,3.7
2018-07-27T01:23:42.013Z,6.4
2018-07-27T01:24:43.652Z,9.5
2018-07-27T01:25:45.301Z,6.7
2018-07-27T01:26:47.755Z,4.6
2018-07-27T01:27:49.388Z,8.8
2018-07-27T01:28:51.022Z,11.9
2018-07-27T01:29:52.664Z,12.9
2018-07-27T01:30:54.302Z,10.1
2018-07-27T01:31:55.944Z,14.4
2018-07-27T01:32:57.585Z,16.6
2018-07-27T01:33:59.223Z,16.1
2018-07-27T01:35:00.866Z,19.3
2018-07-27T01:36:02.513Z,19.2
2018-07-27T01:37:04.154Z,21.0
2018-07-27T01:38:05.797Z,20.9
2018-07-27T01:39:07.442Z,19.7
2018-07-27T01:40:09.089Z,16.9
2018-07-27T01:41:10.731Z,14.6
2018-07-27T01:42:12.376Z,13.4
2018-07-27T01:43:14.016Z,10.6
2018-07-27T01:44:15.660Z,5.8
2018-07-27T01:45:17.293Z,3.0
2018-07-27T01:46:18.939Z,3.0
2018-07-27T01:47:20.590Z,0.8
2018-07-27T01:48:22.232Z,1.0
2018-07-27T01:49:23.867Z,0.0
2018-07-27T01:50:25.510Z,0.0
2018-07-27T01:51:27.171Z,0.0
2018-07-27T01:52:28.811Z,1.1
2018-07-27T01:53:30.457Z,0.9
2018-07-27T01:54:32.093Z,0.0
2018-07-27T02:01:13.275Z,0.0
2018-07-27T02:02:14.903Z,0.0
2018-07-27T02:04:07.563Z,0.0
2018-07-27T02:05:09.191Z,0.0
2018-07-27T02:07:01.136Z,0.0
2018-07-27T02:08:02.774Z,0.0
2018-07-27T02:09:04.422Z,0.0
2018-07-27T02:10:06.060Z,0.0
2018-07-27T02:11:07.713Z,0.0
2018-07-27T02:12:09.353Z,0.0
2018-07-27T02:13:11.001Z,0.0
2018-07-27T02:14:12.635Z,0.0
2018-07-27T02:15:14.270Z,0.0
2018-07-27T02:16:15.906Z,0.0
2018-07-27T02:17:17.546Z,0.0
2018-07-27T02:18:19.183Z,0.0
2018-07-27T02:19:20.825Z,0.0
2018-07-27T02:20:22.467Z,0.0
2018-07-27T02:21:24.098Z,0.0
2018-07-27T02:22:25.768Z,0.0
2018-07-27T02:23:27.409Z,0.0
2018-07-27T02:24:29.047Z,0.0
2018-07-27T02:25:30.683Z,0.0
2018-07-27T02:26:32.335Z,0.0
2018-07-27T02:27:33.969Z,0.0
2018-07-27T02:28:35.614Z,0.0
2018-07-27T02:29:37.260Z,0.0
2018-07-27T02:30:38.900Z,0.0
2018-07-27T02:31:40.538Z,0.0
2018-07-27T02:32:42.180Z,0.0
2018-07-27T02:33:43.876Z,0.0
2018-07-27T02:34:45.451Z,0.0
2018-07-27T02:35:47.104Z,0.0
2018-07-27T02:36:48.749Z,0.0
2018-07-27T02:37:50.378Z,0.0
2018-07-27T02:38:52.016Z,0.0
2018-07-27T02:39:53.692Z,0.0
2018-07-27T02:40:55.293Z,0.0
2018-07-27T02:41:56.937Z,0.0
2018-07-27T02:42:58.583Z,0.0
2018-07-27T02:44:00.215Z,0.0
2018-07-27T02:45:01.848Z,0.0
2018-07-27T02:46:03.497Z,0.0
2018-07-27T02:47:05.127Z,0.0
2018-07-27T02:48:06.770Z,0.0
2018-07-27T02:49:08.419Z,0.0
2018-07-27T02:50:10.053Z,0.0
2018-07-27T02:51:11.718Z,0.0
2018-07-27T02:52:13.323Z,0.0
2018-07-27T02:53:14.962Z,0.0
2018-07-27T02:54:16.605Z,0.0
2018-07-27T02:55:18.249Z,0.0
2018-07-27T02:56:19.885Z,0.0
2018-07-27T02:57:22.245Z,0.0
2018-07-27T02:58:23.880Z,0.0
2018-07-27T02:59:25.515Z,0.0
2018-07-27T03:00:27.166Z,0.0
2018-07-27T03:01:28.808Z,0.0
2018-07-27T03:02:30.445Z,0.0
2018-07-27T03:03:32.094Z,0.0
2018-07-27T03:04:33.742Z,0.0
2018-07-27T03:05:35.381Z,0.0
2018-07-27T03:06:37.015Z,0.0
2018-07-27T03:07:39.276Z,0.0
2018-07-27T03:08:40.923Z,0.0
2018-07-27T03:09:42.591Z,0.0
2018-07-27T03:10:44.166Z,0.0
2018-07-27T03:11:45.805Z,0.0
2018-07-27T03:12:47.440Z,0.0
2018-07-27T03:13:49.086Z,0.0
2018-07-27T03:14:50.732Z,0.0
2018-07-27T03:15:52.379Z,0.0
2018-07-27T03:16:54.022Z,0.0
2018-07-27T03:17:55.669Z,0.0
2018-07-27T03:18:57.312Z,0.0
2018-07-27T03:19:58.958Z,0.0
2018-07-27T03:21:00.588Z,0.0
2018-07-27T03:22:02.228Z,0.0
2018-07-27T03:23:03.869Z,0.0
2018-07-27T03:24:05.898Z,0.0
2018-07-27T03:25:07.535Z,0.0
2018-07-27T03:26:09.182Z,0.0
2018-07-27T03:27:10.821Z,0.0
2018-07-27T03:28:12.457Z,0.0
2018-07-27T03:29:14.097Z,0.0
2018-07-27T03:30:15.737Z,0.0
2018-07-27T03:31:17.383Z,0.0
2018-07-27T03:32:19.023Z,0.0
2018-07-27T03:33:20.666Z,0.0
2018-07-27T03:34:22.310Z,0.0
2018-07-27T03:35:23.961Z,0.0
2018-07-27T03:36:25.602Z,0.0
2018-07-27T03:37:27.246Z,0.0
2018-07-27T03:38:28.918Z,0.0
2018-07-27T03:39:30.564Z,0.0
2018-07-27T03:40:32.223Z,0.0
2018-07-27T03:41:33.854Z,0.0
2018-07-27T03:42:35.498Z,0.0
2018-07-27T03:43:37.148Z,0.0
2018-07-27T03:44:38.807Z,0.0
2018-07-27T03:45:40.440Z,0.0
2018-07-27T03:46:42.088Z,0.0
2018-07-27T03:47:43.729Z,0.0
2018-07-27T03:48:45.363Z,0.0
2018-07-27T03:49:47.001Z,0.0
2018-07-27T03:50:48.648Z,0.0
2018-07-27T03:51:50.288Z,0.0
2018-07-27T03:52:51.935Z,0.0
2018-07-27T03:53:53.574Z,0.0
2018-07-27T03:54:55.213Z,0.0
2018-07-27T03:55:56.852Z,0.0
2018-07-27T03:56:58.502Z,0.0
2018-07-27T03:58:00.145Z,0.0
2018-07-27T03:59:01.795Z,0.0
2018-07-27T04:00:03.495Z,0.0
2018-07-27T04:01:05.107Z,0.0
2018-07-27T04:02:06.789Z,0.0
2018-07-27T04:03:08.398Z,0.0
2018-07-27T04:04:10.044Z,0.0
2018-07-27T04:05:11.677Z,0.0
2018-07-27T04:06:13.323Z,0.0
2018-07-27T04:07:15.018Z,0.0
2018-07-27T04:08:16.615Z,0.0
2018-07-27T04:09:18.258Z,0.0
2018-07-27T04:10:19.899Z,0.0
2018-07-27T04:11:21.559Z,0.0
2018-07-27T04:12:23.198Z,0.0
2018-07-27T04:13:24.843Z,0.0
2018-07-27T04:14:26.492Z,0.0
2018-07-27T04:15:28.130Z,0.0
2018-07-27T04:16:29.776Z,0.0
2018-07-27T04:17:31.417Z,0.0
2018-07-27T04:18:33.077Z,0.0
2018-07-27T04:19:34.709Z,0.0
2018-07-27T04:20:36.354Z,0.0
2018-07-27T04:21:37.994Z,0.0
2018-07-27T04:22:39.645Z,0.0
2018-07-27T04:23:41.283Z,0.0
2018-07-27T04:24:42.921Z,0.0
2018-07-27T04:25:46.413Z,0.0
2018-07-27T04:26:48.064Z,0.0
2018-07-27T04:27:49.699Z,0.0
2018-07-27T04:28:51.349Z,0.0
2018-07-27T04:29:52.994Z,0.0
2018-07-27T04:30:54.641Z,0.0
2018-07-27T04:31:56.283Z,0.0
2018-07-27T04:32:57.928Z,0.0
2018-07-27T04:33:59.577Z,0.0
2018-07-27T04:35:01.226Z,0.0
2018-07-27T04:36:02.873Z,0.0
2018-07-27T04:37:04.517Z,0.0
2018-07-27T04:38:06.159Z,0.0
2018-07-27T04:39:07.812Z,0.0
2018-07-27T04:40:09.461Z,0.0
2018-07-27T04:41:11.108Z,0.0
2018-07-27T04:42:12.746Z,0.0
2018-07-27T04:43:14.402Z,0.0
2018-07-27T04:44:16.043Z,0.0
2018-07-27T04:45:17.689Z,0.0
2018-07-27T04:46:19.319Z,0.0
2018-07-27T04:47:20.962Z,0.0
2018-07-27T04:48:22.611Z,0.0
2018-07-27T04:49:24.285Z,0.0
2018-07-27T04:50:25.897Z,0.0
2018-07-27T04:51:27.555Z,0.0
2018-07-27T04:52:29.206Z,0.0
2018-07-27T04:53:30.845Z,0.0
2018-07-27T04:54:32.491Z,0.0
2018-07-27T04:55:34.141Z,0.0
2018-07-27T04:56:35.849Z,0.0
2018-07-27T04:57:37.428Z,0.0
2018-07-27T04:58:39.078Z,12.5
2018-07-27T04:59:40.726Z,25.6
2018-07-27T05:00:42.364Z,30.9
2018-07-27T05:01:44.013Z,37.3
2018-07-27T05:02:45.689Z,41.5
2018-07-27T05:03:47.342Z,44.7
2018-07-27T05:04:49.029Z,48.0
2018-07-27T05:05:50.629Z,53.1
2018-07-27T05:06:53.167Z,56.6
2018-07-27T05:07:54.802Z,56.9
2018-07-27T05:08:56.450Z,60.5
2018-07-27T05:09:58.123Z,64.0
2018-07-27T05:10:59.768Z,64.9
2018-07-27T05:12:01.421Z,63.3
2018-07-27T05:13:03.072Z,68.5
2018-07-27T05:14:04.718Z,68.0
2018-07-27T05:15:06.375Z,70.6
2018-07-27T05:16:08.024Z,70.6
2018-07-27T05:17:09.677Z,77.2
2018-07-27T05:18:11.381Z,76.9
2018-07-27T05:19:12.965Z,76.3
2018-07-27T05:20:14.622Z,77.0
2018-07-27T05:21:16.267Z,76.8
2018-07-27T05:22:17.921Z,79.0
2018-07-27T05:23:19.565Z,78.6
2018-07-27T05:24:21.216Z,77.7
2018-07-27T05:25:22.869Z,79.2
2018-07-27T05:26:24.518Z,77.5
2018-07-27T05:27:26.176Z,79.5
2018-07-27T05:28:27.830Z,81.3
2018-07-27T05:29:29.481Z,80.1
2018-07-27T05:30:31.135Z,77.3
2018-07-27T05:31:32.779Z,79.5
2018-07-27T05:32:34.454Z,80.2
2018-07-27T05:33:36.116Z,81.2
2018-07-27T05:34:37.763Z,79.6
2018-07-27T05:35:39.417Z,82.4
2018-07-27T05:36:41.064Z,83.0
2018-07-27T05:37:42.716Z,81.1
2018-07-27T05:38:44.362Z,81.4
2018-07-27T05:39:46.020Z,83.4
2018-07-27T05:40:47.668Z,82.4
2018-07-27T05:41:49.323Z,81.3
2018-07-27T05:42:50.975Z,83.1
2018-07-27T05:43:52.626Z,82.7
2018-07-27T05:44:54.273Z,82.6
2018-07-27T05:45:55.932Z,81.4
2018-07-27T05:46:57.630Z,82.3
2018-07-27T05:47:59.240Z,82.7
2018-07-27T05:49:00.911Z,82.4
2018-07-27T05:50:02.566Z,81.6
2018-07-27T05:51:04.211Z,82.3
2018-07-27T05:52:05.869Z,82.3
2018-07-27T05:53:07.523Z,81.9
2018-07-27T05:54:09.182Z,79.5
2018-07-27T05:55:10.839Z,79.5
2018-07-27T05:56:12.502Z,81.0
2018-07-27T06:02:01.163Z,80.3
2018-07-27T06:03:02.849Z,79.0
2018-07-27T06:04:54.711Z,77.7
2018-07-27T06:05:56.350Z,76.4
2018-07-27T06:07:48.186Z,77.8
2018-07-27T06:08:49.848Z,74.6
2018-07-27T06:10:41.655Z,75.8
2018-07-27T06:11:43.304Z,76.2
2018-07-27T06:12:44.952Z,72.5
2018-07-27T06:13:46.609Z,69.9
2018-07-27T06:14:48.257Z,64.7
2018-07-27T06:15:49.917Z,67.3
2018-07-27T06:16:51.578Z,68.1
2018-07-27T06:17:53.314Z,68.2
2018-07-27T06:18:54.886Z,68.5
2018-07-27T06:19:56.535Z,69.7
2018-07-27T06:20:58.260Z,67.4
2018-07-27T06:21:59.820Z,64.8
2018-07-27T06:23:01.482Z,62.1
2018-07-27T06:24:03.151Z,57.6
2018-07-27T06:25:04.760Z,58.9
2018-07-27T06:26:06.414Z,59.6
2018-07-27T06:27:08.063Z,63.5
2018-07-27T06:28:09.760Z,63.3
2018-07-27T06:29:11.413Z,63.7
2018-07-27T06:30:13.051Z,60.1
2018-07-27T06:31:14.693Z,57.7
2018-07-27T06:32:16.356Z,59.5
2018-07-27T06:33:18.006Z,58.6
2018-07-27T06:34:19.657Z,59.4
2018-07-27T06:35:21.317Z,56.8
2018-07-27T06:36:22.995Z,58.0
2018-07-27T06:37:24.646Z,55.5
2018-07-27T06:38:26.300Z,54.8
2018-07-27T06:39:27.959Z,54.9
2018-07-27T06:40:29.612Z,54.3
2018-07-27T06:41:31.276Z,53.2
2018-07-27T06:42:32.932Z,49.9
2018-07-27T06:43:34.591Z,51.1
2018-07-27T06:44:36.247Z,51.0
2018-07-27T06:45:38.298Z,50.8
2018-07-27T06:46:39.956Z,49.9
2018-07-27T06:47:41.625Z,50.1
2018-07-27T06:48:43.277Z,48.3
2018-07-27T06:49:45.722Z,46.1
2018-07-27T06:50:47.384Z,44.5
2018-07-27T06:51:49.041Z,43.6
2018-07-27T06:52:50.753Z,41.2
2018-07-27T06:53:52.457Z,39.9
2018-07-27T06:54:54.122Z,39.3
2018-07-27T06:55:55.774Z,39.3
2018-07-27T06:56:57.438Z,38.8
2018-07-27T06:57:59.679Z,38.8
2018-07-27T06:59:01.559Z,38.2
2018-07-27T07:00:03.828Z,37.2
2018-07-27T07:01:05.538Z,36.1
2018-07-27T07:02:07.753Z,35.5
2018-07-27T07:03:09.418Z,35.9
2018-07-27T07:04:11.085Z,36.7
2018-07-27T07:05:14.083Z,37.1
2018-07-27T07:06:15.712Z,37.2
2018-07-27T07:07:17.387Z,36.2
2018-07-27T07:08:19.040Z,37.0
2018-07-27T07:09:21.385Z,36.5
2018-07-27T07:10:23.052Z,35.6
2018-07-27T07:11:24.718Z,37.4
2018-07-27T07:12:26.379Z,37.9
2018-07-27T07:13:28.042Z,38.8
2018-07-27T07:14:29.749Z,39.8
2018-07-27T07:15:31.327Z,41.0
2018-07-27T07:16:32.997Z,41.3
2018-07-27T07:17:34.643Z,41.4
2018-07-27T07:18:36.305Z,41.6
2018-07-27T07:19:38.040Z,41.2
2018-07-27T07:20:39.696Z,40.1
2018-07-27T07:21:41.354Z,39.8
2018-07-27T07:22:43.032Z,41.4
2018-07-27T07:23:44.711Z,40.5
2018-07-27T07:24:46.374Z,37.6
2018-07-27T07:25:48.215Z,36.1
2018-07-27T07:26:49.675Z,33.5
2018-07-27T07:27:51.348Z,33.0
2018-07-27T07:28:53.010Z,32.1
2018-07-27T07:29:54.691Z,32.8
2018-07-27T07:30:56.345Z,32.9
2018-07-27T07:31:58.069Z,32.8
2018-07-27T07:32:59.718Z,32.2
2018-07-27T07:34:01.381Z,31.7
2018-07-27T07:35:03.039Z,30.4
2018-07-27T07:36:04.707Z,31.4
2018-07-27T07:37:06.955Z,30.3
2018-07-27T07:38:08.614Z,30.4
2018-07-27T07:39:10.299Z,28.7
2018-07-27T07:40:11.955Z,28.7
2018-07-27T07:41:13.612Z,27.5
2018-07-27T07:42:15.280Z,28.2
2018-07-27T07:43:17.335Z,28.5
2018-07-27T07:44:19.018Z,28.9
2018-07-27T07:45:20.899Z,28.8
2018-07-27T07:46:22.570Z,27.6
2018-07-27T07:47:24.264Z,27.1
2018-07-27T07:48:26.182Z,28.8
2018-07-27T07:49:27.701Z,30.3
2018-07-27T07:50:29.368Z,29.6
2018-07-27T07:51:31.039Z,32.6
2018-07-27T07:52:32.734Z,33.2
2018-07-27T07:53:34.423Z,31.1
2018-07-27T07:54:36.095Z,30.3
2018-07-27T07:55:37.766Z,30.2
2018-07-27T07:56:39.439Z,31.7
2018-07-27T07:57:41.115Z,31.8
2018-07-27T07:58:42.811Z,31.6
2018-07-27T07:59:44.434Z,32.6
2018-07-27T08:00:46.122Z,31.0
2018-07-27T08:01:47.783Z,28.9
2018-07-27T08:02:49.449Z,27.5
2018-07-27T08:03:51.118Z,28.1
2018-07-27T08:04:52.873Z,28.3
2018-07-27T08:05:54.567Z,27.7
2018-07-27T08:06:56.203Z,29.6
2018-07-27T08:07:57.864Z,29.4
2018-07-27T08:08:59.539Z,28.0
2018-07-27T08:10:01.227Z,27.7
2018-07-27T08:11:02.923Z,28.5
2018-07-27T08:12:04.562Z,29.3
2018-07-27T08:13:06.225Z,31.1
2018-07-27T08:14:07.888Z,30.4
2018-07-27T08:15:09.548Z,30.4
2018-07-27T08:16:11.210Z,31.0
2018-07-27T08:17:12.964Z,31.3
2018-07-27T08:18:14.613Z,30.2
2018-07-27T08:19:16.323Z,31.4
2018-07-27T08:20:17.992Z,30.9
2018-07-27T08:21:21.601Z,31.1
2018-07-27T08:22:24.072Z,31.9
2018-07-27T08:23:25.729Z,31.5
2018-07-27T08:24:27.395Z,30.3
2018-07-27T08:25:29.051Z,29.8
2018-07-27T08:26:30.718Z,28.6
2018-07-27T08:27:32.390Z,29.4
2018-07-27T08:28:34.077Z,29.9
2018-07-27T08:29:35.773Z,28.5
2018-07-27T08:30:37.449Z,27.7
2018-07-27T08:31:39.110Z,27.6
2018-07-27T08:32:40.793Z,27.9
2018-07-27T08:33:42.446Z,28.4
2018-07-27T08:34:44.116Z,27.9
2018-07-27T08:35:45.780Z,28.6
2018-07-27T08:36:47.444Z,29.4
2018-07-27T08:37:49.110Z,30.3
2018-07-27T08:38:50.782Z,31.6
2018-07-27T08:39:52.438Z,32.1
2018-07-27T08:40:54.123Z,32.2
2018-07-27T08:41:55.777Z,31.9
2018-07-27T08:42:57.437Z,31.4
2018-07-27T08:43:59.097Z,31.5
2018-07-27T08:45:00.755Z,29.9
2018-07-27T08:46:02.413Z,28.6
2018-07-27T08:47:04.080Z,29.2
2018-07-27T08:48:05.747Z,30.8
2018-07-27T08:49:07.431Z,31.9
2018-07-27T08:50:09.096Z,32.2
2018-07-27T08:51:10.775Z,30.5
2018-07-27T08:52:12.436Z,30.0
2018-07-27T08:53:14.106Z,29.6
2018-07-27T08:54:15.788Z,29.2
2018-07-27T08:55:17.435Z,28.8
2018-07-27T08:56:19.133Z,28.4
2018-07-27T08:57:20.768Z,29.6
2018-07-27T08:58:22.451Z,28.9
2018-07-27T08:59:24.133Z,28.2
2018-07-27T09:00:25.806Z,27.6
2018-07-27T09:01:27.574Z,27.8
2018-07-27T09:02:30.242Z,27.1
2018-07-27T09:03:32.293Z,26.9
2018-07-27T09:04:33.975Z,27.4
2018-07-27T09:05:35.658Z,26.9
2018-07-27T09:06:37.327Z,28.3
2018-07-27T09:07:38.998Z,27.2
2018-07-27T09:08:40.687Z,27.1
2018-07-27T09:09:42.397Z,28.5
2018-07-27T09:10:44.115Z,28.5
2018-07-27T09:11:45.796Z,29.5
2018-07-27T09:12:48.241Z,29.4
2018-07-27T09:13:49.928Z,28.9
2018-07-27T09:14:51.591Z,30.7
2018-07-27T09:15:53.262Z,29.4
2018-07-27T09:16:54.928Z,27.3
2018-07-27T09:17:56.597Z,26.5
2018-07-27T09:18:58.271Z,25.1
2018-07-27T09:19:59.930Z,27.1
2018-07-27T09:21:01.598Z,26.6
2018-07-27T09:22:03.652Z,27.7
2018-07-27T09:23:05.316Z,26.6
2018-07-27T09:24:06.996Z,25.7
2018-07-27T09:25:08.727Z,26.5
2018-07-27T09:26:10.325Z,27.0
2018-07-27T09:27:11.989Z,28.0
2018-07-27T09:28:13.845Z,29.7
2018-07-27T09:29:16.194Z,29.7
2018-07-27T09:30:18.256Z,28.8
2018-07-27T09:31:19.940Z,27.1
2018-07-27T09:32:21.659Z,25.7
2018-07-27T09:33:23.377Z,25.8
2018-07-27T09:34:25.041Z,27.3
2018-07-27T09:35:28.225Z,28.6
2018-07-27T09:36:29.881Z,28.4
2018-07-27T09:37:31.544Z,27.6
2018-07-27T09:38:33.513Z,26.3
2018-07-27T09:39:35.219Z,26.0
2018-07-27T09:40:37.386Z,27.6
2018-07-27T09:41:39.152Z,26.4
2018-07-27T09:42:41.193Z,25.4
2018-07-27T09:43:43.100Z,26.8
2018-07-27T09:44:44.760Z,26.9
2018-07-27T09:45:46.460Z,26.6
2018-07-27T09:46:48.122Z,26.7
2018-07-27T09:47:49.793Z,26.1
2018-07-27T09:48:51.463Z,25.9
2018-07-27T09:49:53.131Z,25.8
2018-07-27T09:50:54.791Z,25.2
2018-07-27T09:51:57.290Z,23.8
2018-07-27T09:52:58.954Z,25.1
2018-07-27T09:54:00.617Z,26.1
2018-07-27T09:55:02.288Z,27.4
2018-07-27T10:01:29.726Z,26.3
2018-07-27T10:02:31.391Z,26.0
2018-07-27T10:04:23.278Z,23.9
2018-07-27T10:05:24.942Z,25.2
2018-07-27T10:07:16.883Z,24.7
2018-07-27T10:08:18.583Z,25.3
2018-07-27T10:09:20.248Z,25.4
2018-07-27T10:10:21.908Z,26.0
2018-07-27T10:11:23.570Z,25.9
2018-07-27T10:12:25.231Z,26.4
2018-07-27T10:13:26.894Z,26.2
2018-07-27T10:14:28.563Z,24.7
2018-07-27T10:15:30.465Z,24.8
2018-07-27T10:16:32.124Z,25.2
2018-07-27T10:17:33.791Z,23.5
2018-07-27T10:18:35.485Z,23.4
2018-07-27T10:19:37.076Z,23.4
2018-07-27T10:20:38.743Z,23.1
2018-07-27T10:21:40.412Z,23.7
2018-07-27T10:22:42.078Z,24.3
2018-07-27T10:23:43.737Z,24.5
2018-07-27T10:24:45.408Z,24.9
2018-07-27T10:25:47.070Z,25.0
2018-07-27T10:26:48.735Z,25.0
2018-07-27T10:27:50.402Z,23.7
2018-07-27T10:28:52.081Z,23.7
2018-07-27T10:29:53.748Z,24.6
2018-07-27T10:30:55.418Z,24.8
2018-07-27T10:31:57.078Z,26.0
2018-07-27T10:32:58.739Z,25.1
2018-07-27T10:34:00.413Z,23.8
2018-07-27T10:35:02.814Z,24.0
2018-07-27T10:36:05.264Z,23.5
2018-07-27T10:37:06.904Z,22.4
2018-07-27T10:38:08.573Z,23.5
2018-07-27T10:39:10.237Z,23.4
2018-07-27T10:40:11.918Z,23.9
2018-07-27T10:41:13.598Z,23.1
2018-07-27T10:42:15.259Z,23.3
2018-07-27T10:43:16.933Z,21.0
2018-07-27T10:44:18.605Z,20.1
2018-07-27T10:45:20.269Z,18.4
2018-07-27T10:46:21.946Z,18.4
2018-07-27T10:47:23.604Z,18.1
2018-07-27T10:48:25.273Z,18.5
2018-07-27T10:49:26.942Z,20.5
2018-07-27T10:50:28.618Z,21.5
2018-07-27T10:51:30.285Z,22.0
2018-07-27T10:52:31.940Z,21.7
2018-07-27T10:53:33.624Z,23.0
2018-07-27T10:54:35.282Z,22.5
2018-07-27T10:55:36.965Z,22.5
2018-07-27T10:56:38.636Z,21.5
2018-07-27T10:57:40.306Z,23.6
2018-07-27T10:58:42.183Z,23.8
2018-07-27T10:59:43.836Z,23.2
2018-07-27T11:00:45.507Z,23.8
2018-07-27T11:01:47.171Z,24.7
2018-07-27T11:02:48.841Z,25.0
2018-07-27T11:03:50.511Z,25.1
2018-07-27T11:04:52.181Z,26.9
2018-07-27T11:05:53.842Z,26.6
2018-07-27T11:06:55.508Z,26.2
2018-07-27T11:07:57.209Z,24.0
2018-07-27T11:08:58.875Z,23.7
2018-07-27T11:10:00.543Z,23.8
2018-07-27T11:11:02.215Z,23.7
2018-07-27T11:12:03.888Z,23.7
2018-07-27T11:13:05.619Z,23.4
2018-07-27T11:14:07.291Z,22.2
2018-07-27T11:15:09.380Z,21.0
2018-07-27T11:16:10.993Z,21.5
2018-07-27T11:17:12.680Z,21.4
2018-07-27T11:18:14.336Z,23.7
2018-07-27T11:19:15.998Z,26.1
2018-07-27T11:20:17.657Z,27.4
2018-07-27T11:21:19.360Z,26.4
2018-07-27T11:22:21.029Z,25.8
2018-07-27T11:23:22.686Z,26.3
2018-07-27T11:24:24.355Z,26.0
2018-07-27T11:25:26.040Z,25.3
2018-07-27T11:26:27.720Z,23.5
2018-07-27T11:27:29.393Z,22.5
2018-07-27T11:28:31.053Z,20.6
2018-07-27T11:29:32.728Z,22.3
2018-07-27T11:30:34.444Z,23.0
2018-07-27T11:31:36.119Z,23.7
2018-07-27T11:32:37.789Z,23.6
2018-07-27T11:33:39.452Z,23.8
2018-07-27T11:34:41.122Z,23.0
2018-07-27T11:35:42.823Z,22.4
2018-07-27T11:36:44.486Z,22.6
2018-07-27T11:37:46.153Z,21.4
2018-07-27T11:38:47.813Z,20.8
2018-07-27T11:39:49.506Z,21.1
2018-07-27T11:40:51.196Z,22.2
2018-07-27T11:41:52.851Z,20.8
2018-07-27T11:42:54.508Z,21.2
2018-07-27T11:43:56.177Z,20.8
2018-07-27T11:44:57.852Z,20.0
2018-07-27T11:45:59.522Z,19.9
2018-07-27T11:47:01.189Z,20.0
2018-07-27T11:48:02.917Z,20.4
2018-07-27T11:49:04.618Z,20.6
2018-07-27T11:50:06.288Z,20.4
2018-07-27T11:51:07.956Z,19.7
2018-07-27T11:52:09.648Z,19.9
2018-07-27T11:53:11.336Z,20.4
2018-07-27T11:54:13.016Z,20.6
2018-07-27T11:55:14.728Z,20.7
2018-07-27T11:56:16.395Z,22.4
2018-07-27T11:57:18.064Z,20.8
2018-07-27T11:58:19.729Z,21.0
2018-07-27T11:59:21.439Z,20.5
2018-07-27T12:00:23.217Z,19.7
2018-07-27T12:01:24.786Z,18.7
2018-07-27T12:02:26.496Z,18.3
2018-07-27T12:03:28.174Z,18.6
2018-07-27T12:04:29.834Z,18.4
2018-07-27T12:05:31.526Z,20.5
2018-07-27T12:06:33.187Z,20.6
2018-07-27T12:07:34.858Z,20.7
2018-07-27T12:08:36.523Z,21.8
2018-07-27T12:09:38.214Z,21.1
2018-07-27T12:10:39.864Z,22.2
2018-07-27T12:11:41.542Z,23.4
2018-07-27T12:12:43.205Z,22.1
2018-07-27T12:13:44.873Z,22.4
2018-07-27T12:14:46.666Z,20.6
2018-07-27T12:15:48.228Z,19.8
2018-07-27T12:16:50.692Z,18.7
2018-07-27T12:17:52.362Z,20.1
2018-07-27T12:18:54.033Z,23.1
2018-07-27T12:19:55.689Z,25.7
2018-07-27T12:20:57.486Z,26.0
2018-07-27T12:21:59.032Z,24.1
2018-07-27T12:23:00.688Z,22.6
2018-07-27T12:24:02.403Z,20.8
2018-07-27T12:25:04.076Z,20.5
2018-07-27T12:26:05.779Z,20.3
2018-07-27T12:27:07.456Z,20.0
2018-07-27T12:28:09.109Z,19.5
2018-07-27T12:29:10.780Z,19.7
2018-07-27T12:30:12.448Z,21.8
2018-07-27T12:31:14.134Z,23.2
2018-07-27T12:32:15.791Z,22.4
2018-07-27T12:33:17.468Z,23.3
2018-07-27T12:34:19.136Z,24.2
2018-07-27T12:35:20.817Z,23.7
2018-07-27T12:36:23.147Z,24.2
2018-07-27T12:37:24.815Z,26.0
2018-07-27T12:38:26.483Z,25.0
2018-07-27T12:39:28.150Z,24.8
2018-07-27T12:40:31.250Z,25.0
2018-07-27T12:41:34.036Z,26.6
2018-07-27T12:42:37.252Z,24.8
2018-07-27T12:43:38.854Z,22.4
2018-07-27T12:44:41.764Z,22.5
2018-07-27T12:45:43.316Z,22.9
2018-07-27T12:46:44.994Z,25.2
2018-07-27T12:47:46.660Z,26.3
2018-07-27T12:48:48.332Z,25.1
2018-07-27T12:49:50.198Z,23.5
2018-07-27T12:50:51.879Z,22.0
2018-07-27T12:51:53.582Z,21.7
2018-07-27T12:53:03.919Z,21.5
2018-07-27T12:54:05.588Z,20.7
2018-07-27T12:55:07.250Z,19.9
2018-07-27T12:56:08.910Z,19.9
2018-07-27T12:57:10.582Z,19.7
2018-07-27T12:58:12.267Z,19.8
2018-07-27T12:59:13.956Z,20.0
2018-07-27T13:00:15.658Z,20.2
2018-07-27T13:01:17.300Z,19.8
2018-07-27T13:02:18.973Z,22.4
2018-07-27T13:03:20.675Z,22.6
2018-07-27T13:04:22.342Z,22.8
2018-07-27T13:05:24.090Z,22.7
2018-07-27T13:06:25.698Z,23.8
2018-07-27T13:07:27.711Z,23.2
2018-07-27T13:08:29.372Z,22.3
2018-07-27T13:09:31.030Z,22.0
2018-07-27T13:10:32.705Z,21.1
2018-07-27T13:11:34.371Z,22.6
2018-07-27T13:12:36.046Z,23.2
2018-07-27T13:13:37.719Z,22.4
2018-07-27T13:14:39.397Z,21.1
2018-07-27T13:15:41.066Z,20.8
2018-07-27T13:16:42.735Z,20.6
2018-07-27T13:17:44.406Z,20.8
2018-07-27T13:18:46.078Z,20.3
2018-07-27T13:19:47.737Z,21.5
2018-07-27T13:20:49.406Z,21.5
2018-07-27T13:21:51.157Z,22.2
2018-07-27T13:22:52.799Z,22.8
2018-07-27T13:23:54.462Z,22.7
2018-07-27T14:01:04.731Z,20.5
2018-07-27T14:02:06.429Z,19.2
2018-07-27T14:03:08.095Z,19.5
2018-07-27T14:04:09.776Z,19.9
2018-07-27T14:05:11.478Z,20.8
2018-07-27T14:06:13.207Z,21.6
2018-07-27T14:07:14.816Z,22.5
2018-07-27T14:08:16.483Z,24.2
2018-07-27T14:09:18.192Z,24.7
2018-07-27T14:10:19.844Z,25.2
2018-07-27T14:11:21.505Z,26.1
2018-07-27T14:12:23.179Z,26.6
2018-07-27T14:13:24.845Z,26.4
2018-07-27T14:14:26.512Z,25.9
2018-07-27T14:15:28.177Z,27.2
2018-07-27T14:16:29.835Z,27.2
2018-07-27T14:17:31.495Z,28.0
2018-07-27T14:18:33.186Z,27.0
2018-07-27T14:19:34.850Z,27.1
2018-07-27T14:20:36.513Z,27.3
2018-07-27T14:21:38.237Z,27.0
2018-07-27T14:22:40.095Z,26.1
2018-07-27T14:23:41.796Z,24.9
2018-07-27T14:24:43.412Z,23.7
2018-07-27T14:25:45.080Z,23.3
2018-07-27T14:26:46.734Z,22.5
2018-07-27T14:27:48.400Z,21.1
2018-07-27T14:28:50.073Z,19.7
2018-07-27T14:29:51.741Z,20.6
2018-07-27T14:30:53.397Z,21.1
2018-07-27T14:31:55.067Z,21.1
2018-07-27T14:32:56.734Z,20.8
2018-07-27T14:33:58.399Z,20.3
2018-07-27T14:35:00.064Z,20.2
2018-07-27T14:36:01.725Z,20.7
2018-07-27T14:37:03.387Z,21.0
2018-07-27T14:38:05.047Z,22.6
2018-07-27T14:39:06.722Z,20.8
2018-07-27T14:40:08.387Z,19.3
2018-07-27T14:41:10.051Z,19.7
2018-07-27T14:42:11.719Z,19.0
2018-07-27T14:43:13.382Z,19.7
2018-07-27T14:44:15.090Z,19.2
2018-07-27T14:45:16.777Z,18.5
2018-07-27T14:46:18.379Z,19.3